sensor_id;sensor_type;location;lat;lon;timestamp;pressure;altitude;pressure_sealevel;temperature;humidity
50338;BME280;46221;51.178;5.900;2023-02-01T00:00:30;101917.84;;;13.81;56.89
50338;BME280;46221;51.178;5.900;2023-02-01T00:02:57;101922.34;;;13.79;56.62
50338;BME280;46221;51.178;5.900;2023-02-01T00:05:23;101927.66;;;13.79;56.65
50338;BME280;46221;51.178;5.900;2023-02-01T00:07:50;101933.00;;;13.79;56.65
50338;BME280;46221;51.178;5.900;2023-02-01T00:10:16;101922.44;;;13.76;56.92
50338;BME280;46221;51.178;5.900;2023-02-01T00:12:43;101933.09;;;13.76;56.97
50338;BME280;46221;51.178;5.900;2023-02-01T00:15:10;101926.00;;;13.75;57.22
50338;BME280;46221;51.178;5.900;2023-02-01T00:17:37;101941.13;;;13.75;57.17
50338;BME280;46221;51.178;5.900;2023-02-01T00:20:04;101928.72;;;13.74;57.21
50338;BME280;46221;51.178;5.900;2023-02-01T00:22:30;101923.41;;;13.72;57.27
50338;BME280;46221;51.178;5.900;2023-02-01T00:24:57;101919.94;;;13.70;57.26
50338;BME280;46221;51.178;5.900;2023-02-01T00:27:23;101914.75;;;13.64;57.26
50338;BME280;46221;51.178;5.900;2023-02-01T00:29:50;101911.22;;;13.63;56.99
50338;BME280;46221;51.178;5.900;2023-02-01T00:32:16;101921.81;;;13.67;57.63
50338;BME280;46221;51.178;5.900;2023-02-01T00:34:43;101908.50;;;13.65;57.41
50338;BME280;46221;51.178;5.900;2023-02-01T00:37:09;101914.72;;;13.65;57.61
50338;BME280;46221;51.178;5.900;2023-02-01T00:39:35;101909.47;;;13.62;57.75
50338;BME280;46221;51.178;5.900;2023-02-01T00:42:02;101890.00;;;13.59;57.65
50338;BME280;46221;51.178;5.900;2023-02-01T00:44:29;101879.34;;;13.60;57.66
50338;BME280;46221;51.178;5.900;2023-02-01T00:46:59;101867.81;;;13.60;57.80
50338;BME280;46221;51.178;5.900;2023-02-01T00:49:27;101853.66;;;13.58;57.79
50338;BME280;46221;51.178;5.900;2023-02-01T00:51:54;101880.22;;;13.59;57.96
50338;BME280;46221;51.178;5.900;2023-02-01T00:54:20;101877.69;;;13.55;57.88
50338;BME280;46221;51.178;5.900;2023-02-01T00:56:47;101886.53;;;13.57;58.00
50338;BME280;46221;51.178;5.900;2023-02-01T00:59:13;101886.56;;;13.55;58.13
50338;BME280;46221;51.178;5.900;2023-02-01T01:01:40;101894.59;;;13.54;58.24
50338;BME280;46221;51.178;5.900;2023-02-01T01:04:06;101888.50;;;13.49;57.91
50338;BME280;46221;51.178;5.900;2023-02-01T01:06:33;101891.25;;;13.46;58.01
50338;BME280;46221;51.178;5.900;2023-02-01T01:09:02;101894.75;;;13.48;58.11
50338;BME280;46221;51.178;5.900;2023-02-01T01:11:31;101906.34;;;13.45;57.90
50338;BME280;46221;51.178;5.900;2023-02-01T01:13:59;101908.16;;;13.45;58.20
50338;BME280;46221;51.178;5.900;2023-02-01T01:16:27;101909.97;;;13.42;57.92
50338;BME280;46221;51.178;5.900;2023-02-01T01:18:54;101911.88;;;13.37;57.95
50338;BME280;46221;51.178;5.900;2023-02-01T01:21:21;101914.53;;;13.37;57.77
50338;BME280;46221;51.178;5.900;2023-02-01T01:23:48;101903.97;;;13.34;58.10
50338;BME280;46221;51.178;5.900;2023-02-01T01:26:20;101905.69;;;13.35;58.39
50338;BME280;46221;51.178;5.900;2023-02-01T01:28:46;101901.34;;;13.33;58.10
50338;BME280;46221;51.178;5.900;2023-02-01T01:31:15;101903.97;;;13.34;58.29
50338;BME280;46221;51.178;5.900;2023-02-01T01:33:42;101901.38;;;13.31;58.00
50338;BME280;46221;51.178;5.900;2023-02-01T01:36:10;101909.34;;;13.31;58.01
50338;BME280;46221;51.178;5.900;2023-02-01T01:38:39;101910.31;;;13.29;58.20
50338;BME280;46221;51.178;5.900;2023-02-01T01:41:06;101908.56;;;13.28;58.50
50338;BME280;46221;51.178;5.900;2023-02-01T01:43:54;101900.63;;;13.26;58.31
50338;BME280;46221;51.178;5.900;2023-02-01T01:46:24;101901.53;;;13.24;58.32
50338;BME280;46221;51.178;5.900;2023-02-01T01:49:04;101887.38;;;13.22;58.39
50338;BME280;46221;51.178;5.900;2023-02-01T01:51:33;101898.00;;;13.22;58.33
50338;BME280;46221;51.178;5.900;2023-02-01T01:54:08;101899.81;;;13.21;58.44
50338;BME280;46221;51.178;5.900;2023-02-01T01:56:38;101891.88;;;13.18;58.61
50338;BME280;46221;51.178;5.900;2023-02-01T01:59:06;101885.69;;;13.17;58.55
50338;BME280;46221;51.178;5.900;2023-02-01T02:01:38;101894.63;;;13.15;58.38
50338;BME280;46221;51.178;5.900;2023-02-01T02:04:07;101893.81;;;13.11;58.57
50338;BME280;46221;51.178;5.900;2023-02-01T02:07:21;101893.69;;;13.16;58.76
50338;BME280;46221;51.178;5.900;2023-02-01T02:09:28;101895.63;;;13.11;58.64
50338;BME280;46221;51.178;5.900;2023-02-01T02:11:54;101893.88;;;13.10;59.37
50338;BME280;46221;51.178;5.900;2023-02-01T02:14:23;101893.81;;;13.13;58.66
50338;BME280;46221;51.178;5.900;2023-02-01T02:25:46;101884.19;;;13.06;58.82
50338;BME280;46221;51.178;5.900;2023-02-01T02:28:43;101889.59;;;13.03;58.63
50338;BME280;46221;51.178;5.900;2023-02-01T02:45:18;101875.47;;;12.99;58.55
50338;BME280;46221;51.178;5.900;2023-02-01T02:48:17;101870.16;;;12.99;58.49
50338;BME280;46221;51.178;5.900;2023-02-01T02:53:52;101848.97;;;12.94;57.88
50338;BME280;46221;51.178;5.900;2023-02-01T02:56:39;101855.22;;;12.93;58.58
50338;BME280;46221;51.178;5.900;2023-02-01T02:59:26;101855.22;;;12.93;58.34
50338;BME280;46221;51.178;5.900;2023-02-01T03:02:13;101863.22;;;12.92;58.30
50338;BME280;46221;51.178;5.900;2023-02-01T03:04:59;101860.88;;;12.78;58.81
50338;BME280;46221;51.178;5.900;2023-02-01T03:08:04;101854.56;;;12.84;58.24
50338;BME280;46221;51.178;5.900;2023-02-01T03:16:08;101857.97;;;12.89;58.36
50338;BME280;46221;51.178;5.900;2023-02-01T03:18:48;101856.28;;;12.86;58.46
50338;BME280;46221;51.178;5.900;2023-02-01T03:21:39;101848.31;;;12.86;58.32
50338;BME280;46221;51.178;5.900;2023-02-01T03:24:17;101840.31;;;12.86;58.30
50338;BME280;46221;51.178;5.900;2023-02-01T03:26:51;101837.66;;;12.86;58.41
50338;BME280;46221;51.178;5.900;2023-02-01T03:29:26;101835.88;;;12.87;58.20
50338;BME280;46221;51.178;5.900;2023-02-01T03:31:54;101837.66;;;12.86;58.49
50338;BME280;46221;51.178;5.900;2023-02-01T03:34:21;101834.06;;;12.87;58.60
50338;BME280;46221;51.178;5.900;2023-02-01T03:36:56;101841.13;;;12.88;58.13
50338;BME280;46221;51.178;5.900;2023-02-01T03:42:00;101831.44;;;12.86;58.23
50338;BME280;46221;51.178;5.900;2023-02-01T03:44:35;101835.88;;;12.85;57.89
50338;BME280;46221;51.178;5.900;2023-02-01T03:47:21;101839.53;;;12.81;57.78
50338;BME280;46221;51.178;5.900;2023-02-01T03:49:53;101852.84;;;12.81;57.57
50338;BME280;46221;51.178;5.900;2023-02-01T03:52:28;101846.59;;;12.82;57.69
50338;BME280;46221;51.178;5.900;2023-02-01T03:54:56;101844.06;;;12.78;57.97
50338;BME280;46221;51.178;5.900;2023-02-01T03:57:28;101844.84;;;12.81;57.90
50338;BME280;46221;51.178;5.900;2023-02-01T04:00:08;101848.44;;;12.80;57.96
50338;BME280;46221;51.178;5.900;2023-02-01T04:02:35;101839.59;;;12.80;57.96
50338;BME280;46221;51.178;5.900;2023-02-01T04:05:01;101845.78;;;12.80;57.88
50338;BME280;46221;51.178;5.900;2023-02-01T04:07:28;101844.00;;;12.79;57.26
50338;BME280;46221;51.178;5.900;2023-02-01T04:09:54;101851.16;;;12.77;57.61
50338;BME280;46221;51.178;5.900;2023-02-01T04:12:21;101848.50;;;12.77;57.60
50338;BME280;46221;51.178;5.900;2023-02-01T04:14:47;101845.84;;;12.77;58.20
50338;BME280;46221;51.178;5.900;2023-02-01T04:17:13;101843.19;;;12.77;57.97
50338;BME280;46221;51.178;5.900;2023-02-01T04:19:40;101837.88;;;12.76;57.67
50338;BME280;46221;51.178;5.900;2023-02-01T04:22:06;101847.59;;;12.78;57.38
50338;BME280;46221;51.178;5.900;2023-02-01T04:24:33;101844.94;;;12.78;57.67
50338;BME280;46221;51.178;5.900;2023-02-01T04:26:59;101827.22;;;12.77;57.48
50338;BME280;46221;51.178;5.900;2023-02-01T04:29:25;101823.72;;;12.75;57.64
50338;BME280;46221;51.178;5.900;2023-02-01T04:31:52;101823.72;;;12.75;57.31
50338;BME280;46221;51.178;5.900;2023-02-01T04:34:18;101821.91;;;12.76;57.61
50338;BME280;46221;51.178;5.900;2023-02-01T04:36:45;101821.97;;;12.74;57.29
50338;BME280;46221;51.178;5.900;2023-02-01T04:39:12;101818.38;;;12.75;57.64
50338;BME280;46221;51.178;5.900;2023-02-01T04:41:39;101809.59;;;12.73;57.81
50338;BME280;46221;51.178;5.900;2023-02-01T04:44:05;101805.13;;;12.74;57.81
50338;BME280;46221;51.178;5.900;2023-02-01T04:46:32;101805.16;;;12.72;57.39
50338;BME280;46221;51.178;5.900;2023-02-01T04:48:58;101811.34;;;12.72;57.18
50338;BME280;46221;51.178;5.900;2023-02-01T04:51:24;101814.91;;;12.73;57.14
50338;BME280;46221;51.178;5.900;2023-02-01T04:53:51;101814.91;;;12.73;57.40
50338;BME280;46221;51.178;5.900;2023-02-01T04:56:17;101793.69;;;12.70;57.63
50338;BME280;46221;51.178;5.900;2023-02-01T04:58:43;101796.38;;;12.68;57.36
50338;BME280;46221;51.178;5.900;2023-02-01T05:01:10;101813.22;;;12.69;57.22
50338;BME280;46221;51.178;5.900;2023-02-01T05:03:36;101822.19;;;12.65;57.04
50338;BME280;46221;51.178;5.900;2023-02-01T05:06:03;101817.78;;;12.62;56.52
50338;BME280;46221;51.178;5.900;2023-02-01T05:08:31;101826.56;;;12.66;56.45
50338;BME280;46221;51.178;5.900;2023-02-01T05:10:58;101826.63;;;12.64;56.92
50338;BME280;46221;51.178;5.900;2023-02-01T05:13:25;101839.06;;;12.64;56.97
50338;BME280;46221;51.178;5.900;2023-02-01T05:16:10;101836.41;;;12.64;56.87
50338;BME280;46221;51.178;5.900;2023-02-01T05:18:36;101831.13;;;12.61;56.60
50338;BME280;46221;51.178;5.900;2023-02-01T05:21:03;101836.47;;;12.61;56.95
50338;BME280;46221;51.178;5.900;2023-02-01T05:23:29;101829.41;;;12.60;56.79
50338;BME280;46221;51.178;5.900;2023-02-01T05:26:00;101845.28;;;12.63;56.60
50338;BME280;46221;51.178;5.900;2023-02-01T05:28:28;101848.03;;;12.58;56.62
50338;BME280;46221;51.178;5.900;2023-02-01T05:30:54;101840.94;;;12.59;56.83
50338;BME280;46221;51.178;5.900;2023-02-01T05:33:21;101825.81;;;12.61;56.65
50338;BME280;46221;51.178;5.900;2023-02-01T05:35:47;101839.13;;;12.59;56.81
50338;BME280;46221;51.178;5.900;2023-02-01T05:38:14;101818.78;;;12.58;56.83
50338;BME280;46221;51.178;5.900;2023-02-01T05:40:40;101830.28;;;12.59;56.94
50338;BME280;46221;51.178;5.900;2023-02-01T05:43:07;101824.16;;;12.57;57.24
50338;BME280;46221;51.178;5.900;2023-02-01T05:45:33;101801.09;;;12.57;56.86
50338;BME280;46221;51.178;5.900;2023-02-01T05:48:00;101809.06;;;12.57;56.91
50338;BME280;46221;51.178;5.900;2023-02-01T05:50:26;101823.28;;;12.56;56.59
50338;BME280;46221;51.178;5.900;2023-02-01T05:52:52;101806.47;;;12.54;56.44
50338;BME280;46221;51.178;5.900;2023-02-01T05:55:19;101808.25;;;12.54;57.00
50338;BME280;46221;51.178;5.900;2023-02-01T05:57:45;101815.31;;;12.55;56.82
50338;BME280;46221;51.178;5.900;2023-02-01T06:00:12;101815.31;;;12.55;56.81
50338;BME280;46221;51.178;5.900;2023-02-01T06:02:38;101812.72;;;12.52;56.83
50338;BME280;46221;51.178;5.900;2023-02-01T06:05:05;101833.94;;;12.55;56.85
50338;BME280;46221;51.178;5.900;2023-02-01T06:07:32;101839.25;;;12.55;57.30
50338;BME280;46221;51.178;5.900;2023-02-01T06:09:58;101836.59;;;12.55;57.53
50338;BME280;46221;51.178;5.900;2023-02-01T06:12:25;101825.03;;;12.56;57.85
50338;BME280;46221;51.178;5.900;2023-02-01T06:14:52;101839.13;;;12.59;57.84
50338;BME280;46221;51.178;5.900;2023-02-01T06:17:18;101849.75;;;12.61;57.98
50338;BME280;46221;51.178;5.900;2023-02-01T06:19:45;101851.50;;;12.62;58.13
50338;BME280;46221;51.178;5.900;2023-02-01T06:22:14;101850.63;;;12.63;58.22
50338;BME280;46221;51.178;5.900;2023-02-01T06:24:40;101863.91;;;12.63;58.09
50338;BME280;46221;51.178;5.900;2023-02-01T06:27:07;101853.28;;;12.63;58.04
50338;BME280;46221;51.178;5.900;2023-02-01T06:29:35;101856.66;;;12.69;58.27
50338;BME280;46221;51.178;5.900;2023-02-01T06:32:02;101845.06;;;12.72;57.78
50338;BME280;46221;51.178;5.900;2023-02-01T06:34:29;101830.94;;;12.70;58.48
50338;BME280;46221;51.178;5.900;2023-02-01T06:36:55;101845.88;;;12.76;57.97
50338;BME280;46221;51.178;5.900;2023-02-01T06:39:22;101845.00;;;12.75;57.99
50338;BME280;46221;51.178;5.900;2023-02-01T06:41:48;101847.56;;;12.80;57.93
50338;BME280;46221;51.178;5.900;2023-02-01T06:44:16;101859.03;;;12.82;57.82
50338;BME280;46221;51.178;5.900;2023-02-01T06:46:42;101843.97;;;12.81;57.96
50338;BME280;46221;51.178;5.900;2023-02-01T06:49:09;101855.50;;;12.81;57.89
50338;BME280;46221;51.178;5.900;2023-02-01T06:51:36;101861.59;;;12.86;57.61
50338;BME280;46221;51.178;5.900;2023-02-01T06:54:02;101853.63;;;12.86;57.97
50338;BME280;46221;51.178;5.900;2023-02-01T06:56:29;101857.97;;;12.89;57.69
50338;BME280;46221;51.178;5.900;2023-02-01T06:58:57;101861.44;;;12.92;57.97
50338;BME280;46221;51.178;5.900;2023-02-01T07:01:23;101868.47;;;12.95;58.10
50338;BME280;46221;51.178;5.900;2023-02-01T07:03:50;101877.25;;;12.99;57.81
50338;BME280;46221;51.178;5.900;2023-02-01T07:06:18;101880.78;;;13.01;57.67
50338;BME280;46221;51.178;5.900;2023-02-01T07:08:44;101878.13;;;13.01;57.57
50338;BME280;46221;51.178;5.900;2023-02-01T07:11:15;101878.13;;;13.01;57.43
50338;BME280;46221;51.178;5.900;2023-02-01T07:13:42;101876.19;;;13.06;57.27
50338;BME280;46221;51.178;5.900;2023-02-01T07:16:12;101870.88;;;13.06;57.45
50338;BME280;46221;51.178;5.900;2023-02-01T07:18:39;101876.19;;;13.07;57.76
50338;BME280;46221;51.178;5.900;2023-02-01T07:21:06;101870.75;;;13.12;57.56
50338;BME280;46221;51.178;5.900;2023-02-01T07:23:32;101865.41;;;13.12;57.58
50338;BME280;46221;51.178;5.900;2023-02-01T07:26:01;101859.94;;;13.18;57.52
50338;BME280;46221;51.178;5.900;2023-02-01T07:28:31;101864.25;;;13.24;57.50
50338;BME280;46221;51.178;5.900;2023-02-01T07:31:09;101863.34;;;13.26;56.97
50338;BME280;46221;51.178;5.900;2023-02-01T07:33:36;101856.19;;;13.28;57.07
50338;BME280;46221;51.178;5.900;2023-02-01T07:36:04;101856.09;;;13.31;57.20
50338;BME280;46221;51.178;5.900;2023-02-01T07:38:31;101856.94;;;13.33;57.14
50338;BME280;46221;51.178;5.900;2023-02-01T07:40:59;101863.09;;;13.35;57.20
50338;BME280;46221;51.178;5.900;2023-02-01T07:43:27;101860.34;;;13.38;57.28
50338;BME280;46221;51.178;5.900;2023-02-01T07:45:54;101855.88;;;13.40;57.30
50338;BME280;46221;51.178;5.900;2023-02-01T07:48:22;101857.59;;;13.43;56.48
50338;BME280;46221;51.178;5.900;2023-02-01T07:50:57;101858.41;;;13.45;56.93
50338;BME280;46221;51.178;5.900;2023-02-01T07:53:25;101862.78;;;13.48;57.03
50338;BME280;46221;51.178;5.900;2023-02-01T07:55:51;101861.88;;;13.49;56.83
50338;BME280;46221;51.178;5.900;2023-02-01T07:58:18;101861.78;;;13.52;56.74
50338;BME280;46221;51.178;5.900;2023-02-01T08:00:44;101872.38;;;13.55;56.30
50338;BME280;46221;51.178;5.900;2023-02-01T08:03:29;101878.53;;;13.57;57.05
50338;BME280;46221;51.178;5.900;2023-02-01T08:05:55;101878.47;;;13.60;56.57
50338;BME280;46221;51.178;5.900;2023-02-01T08:08:22;101872.94;;;13.66;56.62
50338;BME280;46221;51.178;5.900;2023-02-01T08:10:49;101885.31;;;13.70;56.43
50338;BME280;46221;51.178;5.900;2023-02-01T08:13:16;101889.66;;;13.73;56.38
50338;BME280;46221;51.178;5.900;2023-02-01T08:15:42;101882.47;;;13.76;56.29
50338;BME280;46221;51.178;5.900;2023-02-01T08:18:09;101873.47;;;13.80;56.36
50338;BME280;46221;51.178;5.900;2023-02-01T08:20:36;101868.97;;;13.82;56.20
50338;BME280;46221;51.178;5.900;2023-02-01T08:23:08;101880.34;;;13.89;56.27
50338;BME280;46221;51.178;5.900;2023-02-01T08:25:34;101889.22;;;13.89;56.17
50338;BME280;46221;51.178;5.900;2023-02-01T08:28:03;101885.59;;;13.92;56.05
50338;BME280;46221;51.178;5.900;2023-02-01T08:30:29;101899.63;;;13.99;55.62
50338;BME280;46221;51.178;5.900;2023-02-01T08:32:56;101904.00;;;14.01;55.96
50338;BME280;46221;51.178;5.900;2023-02-01T08:35:22;101902.28;;;13.99;55.99
50338;BME280;46221;51.178;5.900;2023-02-01T08:37:58;101895.13;;;14.01;55.71
50338;BME280;46221;51.178;5.900;2023-02-01T08:40:25;101893.25;;;14.04;55.87
50338;BME280;46221;51.178;5.900;2023-02-01T08:42:51;101892.31;;;14.05;55.71
50338;BME280;46221;51.178;5.900;2023-02-01T08:45:25;101898.50;;;14.07;55.39
50338;BME280;46221;51.178;5.900;2023-02-01T08:47:52;101902.91;;;14.08;55.33
50338;BME280;46221;51.178;5.900;2023-02-01T08:50:20;101906.41;;;14.10;55.34
50338;BME280;46221;51.178;5.900;2023-02-01T08:52:47;101911.69;;;14.12;55.05
50338;BME280;46221;51.178;5.900;2023-02-01T08:55:14;101900.94;;;14.15;54.96
50338;BME280;46221;51.178;5.900;2023-02-01T08:57:41;101907.13;;;14.17;55.10
50338;BME280;46221;51.178;5.900;2023-02-01T09:00:12;101905.28;;;14.19;54.93
50338;BME280;46221;51.178;5.900;2023-02-01T09:02:39;101899.06;;;14.19;55.14
50338;BME280;46221;51.178;5.900;2023-02-01T09:05:06;101891.94;;;14.19;54.75
50338;BME280;46221;51.178;5.900;2023-02-01T09:07:33;101896.28;;;14.23;54.96
50338;BME280;46221;51.178;5.900;2023-02-01T09:10:00;101902.44;;;14.25;54.91
50338;BME280;46221;51.178;5.900;2023-02-01T09:12:28;101897.00;;;14.30;54.44
50338;BME280;46221;51.178;5.900;2023-02-01T09:14:56;101900.44;;;14.33;54.49
50338;BME280;46221;51.178;5.900;2023-02-01T09:17:23;101899.44;;;14.38;54.33
50338;BME280;46221;51.178;5.900;2023-02-01T09:19:49;101896.63;;;14.42;54.13
50338;BME280;46221;51.178;5.900;2023-02-01T09:22:16;101895.66;;;14.45;54.60
50338;BME280;46221;51.178;5.900;2023-02-01T09:24:43;101889.31;;;14.50;54.23
50338;BME280;46221;51.178;5.900;2023-02-01T09:27:09;101881.25;;;14.52;53.91
50338;BME280;46221;51.178;5.900;2023-02-01T09:29:36;101885.53;;;14.57;54.07
50338;BME280;46221;51.178;5.900;2023-02-01T09:32:02;101877.47;;;14.59;54.05
50338;BME280;46221;51.178;5.900;2023-02-01T09:34:30;101872.97;;;14.61;53.87
50338;BME280;46221;51.178;5.900;2023-02-01T09:36:56;101869.44;;;14.61;53.99
50338;BME280;46221;51.178;5.900;2023-02-01T09:39:23;101871.25;;;14.60;53.83
50338;BME280;46221;51.178;5.900;2023-02-01T09:42:05;101888.91;;;14.64;53.53
50338;BME280;46221;51.178;5.900;2023-02-01T09:47:22;101875.50;;;14.66;53.96
50338;BME280;46221;51.178;5.900;2023-02-01T09:52:17;101879.00;;;14.68;53.62
50338;BME280;46221;51.178;5.900;2023-02-01T09:55:05;101871.06;;;14.66;53.33
50338;BME280;46221;51.178;5.900;2023-02-01T09:57:40;101876.28;;;14.69;53.47
50338;BME280;46221;51.178;5.900;2023-02-01T10:00:16;101867.41;;;14.69;53.79
50338;BME280;46221;51.178;5.900;2023-02-01T10:02:44;101871.00;;;14.68;53.72
50338;BME280;46221;51.178;5.900;2023-02-01T10:05:16;101877.94;;;14.73;53.59
50338;BME280;46221;51.178;5.900;2023-02-01T10:10:43;101890.44;;;14.71;53.41
50338;BME280;46221;51.178;5.900;2023-02-01T10:13:17;101892.16;;;14.74;53.42
50338;BME280;46221;51.178;5.900;2023-02-01T10:15:57;101879.63;;;14.76;53.37
50338;BME280;46221;51.178;5.900;2023-02-01T10:18:51;101893.91;;;14.75;53.20
50338;BME280;46221;51.178;5.900;2023-02-01T10:27:11;101876.84;;;14.80;53.03
50338;BME280;46221;51.178;5.900;2023-02-01T10:29:40;101874.06;;;14.83;53.35
50338;BME280;46221;51.178;5.900;2023-02-01T10:32:14;101872.28;;;14.84;53.37
50338;BME280;46221;51.178;5.900;2023-02-01T10:34:43;101878.38;;;14.88;53.10
50338;BME280;46221;51.178;5.900;2023-02-01T10:37:31;101879.22;;;14.90;53.18
50338;BME280;46221;51.178;5.900;2023-02-01T10:40:18;101864.00;;;14.92;52.96
50338;BME280;46221;51.178;5.900;2023-02-01T10:42:50;101865.66;;;14.96;53.10
50338;BME280;46221;51.178;5.900;2023-02-01T10:45:19;101876.16;;;15.02;52.70
50338;BME280;46221;51.178;5.900;2023-02-01T10:47:49;101877.78;;;15.06;52.88
50338;BME280;46221;51.178;5.900;2023-02-01T10:50:32;101873.34;;;15.06;52.40
50338;BME280;46221;51.178;5.900;2023-02-01T10:53:24;101874.03;;;15.13;52.24
50338;BME280;46221;51.178;5.900;2023-02-01T10:55:53;101877.22;;;15.24;52.04
50338;BME280;46221;51.178;5.900;2023-02-01T10:58:28;101886.63;;;15.36;51.83
50338;BME280;46221;51.178;5.900;2023-02-01T11:06:03;101869.84;;;15.58;51.32
50338;BME280;46221;51.178;5.900;2023-02-01T11:08:42;101859.91;;;15.63;51.01
50338;BME280;46221;51.178;5.900;2023-02-01T11:11:10;101861.56;;;15.65;51.16
50338;BME280;46221;51.178;5.900;2023-02-01T11:13:39;101865.88;;;15.71;51.11
50338;BME280;46221;51.178;5.900;2023-02-01T11:16:08;101859.47;;;15.75;51.19
50338;BME280;46221;51.178;5.900;2023-02-01T11:18:38;101857.34;;;15.85;51.00
50338;BME280;46221;51.178;5.900;2023-02-01T11:21:06;101846.44;;;15.91;50.88
50338;BME280;46221;51.178;5.900;2023-02-01T11:23:33;101854.25;;;15.97;50.65
50338;BME280;46221;51.178;5.900;2023-02-01T11:26:20;101850.34;;;16.06;50.29
50338;BME280;46221;51.178;5.900;2023-02-01T11:28:57;101843.88;;;16.13;50.35
50338;BME280;46221;51.178;5.900;2023-02-01T11:31:26;101840.06;;;16.18;50.61
50338;BME280;46221;51.178;5.900;2023-02-01T11:34:06;101815.75;;;16.24;49.93
50338;BME280;46221;51.178;5.900;2023-02-01T11:36:35;101815.56;;;16.29;49.86
50338;BME280;46221;51.178;5.900;2023-02-01T11:41:55;101820.78;;;16.34;50.13
50338;BME280;46221;51.178;5.900;2023-02-01T11:44:37;101803.66;;;16.38;49.67
50338;BME280;46221;51.178;5.900;2023-02-01T11:49:58;101802.38;;;16.48;49.48
50338;BME280;46221;51.178;5.900;2023-02-01T12:06:31;101801.94;;;16.37;49.58
50338;BME280;46221;51.178;5.900;2023-02-01T12:12:00;101787.97;;;16.29;49.72
50338;BME280;46221;51.178;5.900;2023-02-01T12:14:51;101780.78;;;16.29;49.70
50338;BME280;46221;51.178;5.900;2023-02-01T12:20:21;101791.47;;;16.31;49.73
50338;BME280;46221;51.178;5.900;2023-02-01T12:33:48;101784.25;;;16.33;49.92
50338;BME280;46221;51.178;5.900;2023-02-01T12:36:27;101773.56;;;16.33;49.99
50338;BME280;46221;51.178;5.900;2023-02-01T12:41:50;101772.63;;;16.34;49.83
50338;BME280;46221;51.178;5.900;2023-02-01T12:44:45;101775.28;;;16.34;49.93
50338;BME280;46221;51.178;5.900;2023-02-01T12:47:29;101775.41;;;16.31;50.10
50338;BME280;46221;51.178;5.900;2023-02-01T12:50:06;101775.41;;;16.31;50.03
50338;BME280;46221;51.178;5.900;2023-02-01T12:52:53;101776.34;;;16.30;50.32
50338;BME280;46221;51.178;5.900;2023-02-01T12:55:36;101771.03;;;16.28;50.14
50338;BME280;46221;51.178;5.900;2023-02-01T13:00:58;101761.44;;;16.22;50.01
50338;BME280;46221;51.178;5.900;2023-02-01T13:03:50;101769.47;;;16.22;50.04
50338;BME280;46221;51.178;5.900;2023-02-01T13:06:27;101765.06;;;16.21;50.46
50338;BME280;46221;51.178;5.900;2023-02-01T13:11:52;101754.34;;;16.21;50.40
50338;BME280;46221;51.178;5.900;2023-02-01T13:17:09;101751.53;;;16.26;50.25
50338;BME280;46221;51.178;5.900;2023-02-01T13:19:50;101742.66;;;16.24;50.16
50338;BME280;46221;51.178;5.900;2023-02-01T13:22:39;101755.19;;;16.23;50.03
50338;BME280;46221;51.178;5.900;2023-02-01T13:25:17;101748.88;;;16.24;50.05
50338;BME280;46221;51.178;5.900;2023-02-01T13:27:45;101743.53;;;16.24;50.13
50338;BME280;46221;51.178;5.900;2023-02-01T13:30:18;101737.19;;;16.27;50.37
50338;BME280;46221;51.178;5.900;2023-02-01T13:39:23;101742.94;;;16.40;50.03
50338;BME280;46221;51.178;5.900;2023-02-01T13:41:31;101737.31;;;16.46;49.89
50338;BME280;46221;51.178;5.900;2023-02-01T13:44:02;101741.44;;;16.55;50.07
50338;BME280;46221;51.178;5.900;2023-02-01T13:46:30;101746.56;;;16.61;49.79
50338;BME280;46221;51.178;5.900;2023-02-01T13:49:04;101749.09;;;16.64;49.64
50338;BME280;46221;51.178;5.900;2023-02-01T13:51:38;101742.88;;;16.63;49.45
50338;BME280;46221;51.178;5.900;2023-02-01T13:54:07;101742.81;;;16.65;49.67
50338;BME280;46221;51.178;5.900;2023-02-01T13:56:49;101736.59;;;16.64;49.63
50338;BME280;46221;51.178;5.900;2023-02-01T14:05:08;101748.97;;;16.67;49.58
50338;BME280;46221;51.178;5.900;2023-02-01T14:07:35;101750.66;;;16.69;49.63
50338;BME280;46221;51.178;5.900;2023-02-01T14:13:23;101756.16;;;16.66;49.26
50338;BME280;46221;51.178;5.900;2023-02-01T14:23:58;101768.84;;;16.61;49.58
50338;BME280;46221;51.178;5.900;2023-02-01T14:26:28;101769.78;;;16.60;49.79
50338;BME280;46221;51.178;5.900;2023-02-01T14:32:17;101778.59;;;16.62;49.16
50338;BME280;46221;51.178;5.900;2023-02-01T14:34:50;101772.44;;;16.60;49.41
50338;BME280;46221;51.178;5.900;2023-02-01T14:37:24;101784.88;;;16.61;49.55
50338;BME280;46221;51.178;5.900;2023-02-01T14:39:56;101783.94;;;16.62;49.51
50338;BME280;46221;51.178;5.900;2023-02-01T14:42:43;101799.22;;;16.60;49.66
50338;BME280;46221;51.178;5.900;2023-02-01T14:47:54;101794.09;;;16.54;49.14
50338;BME280;46221;51.178;5.900;2023-02-01T14:50:36;101783.63;;;16.48;49.45
50338;BME280;46221;51.178;5.900;2023-02-01T15:00:56;101788.44;;;16.40;49.65
50338;BME280;46221;51.178;5.900;2023-02-01T15:03:38;101791.16;;;16.38;49.62
50338;BME280;46221;51.178;5.900;2023-02-01T15:06:22;101789.47;;;16.36;49.79
50338;BME280;46221;51.178;5.900;2023-02-01T15:08:53;101754.75;;;16.34;49.91
50338;BME280;46221;51.178;5.900;2023-02-01T15:11:20;101788.72;;;16.32;49.62
50338;BME280;46221;51.178;5.900;2023-02-01T15:13:49;101799.41;;;16.32;49.91
50338;BME280;46221;51.178;5.900;2023-02-01T15:16:19;101801.28;;;16.30;49.96
50338;BME280;46221;51.178;5.900;2023-02-01T15:18:48;101804.88;;;16.29;49.83
50338;BME280;46221;51.178;5.900;2023-02-01T15:21:21;101796.94;;;16.28;50.08
50338;BME280;46221;51.178;5.900;2023-02-01T15:24:11;101790.81;;;16.24;50.15
50338;BME280;46221;51.178;5.900;2023-02-01T15:26:38;101809.72;;;16.19;50.22